Time;durP1;ratioP1;P1;durP2;ratioP2;P2;SDS_P1;SDS_P2;PMS_P1;PMS_P2;Temp;Humidity;BMP_temperature;BMP_pressure;BME280_temperature;BME280_humidity;BME280_pressure;Samples;Min_cycle;Max_cycle;Signal;HPM_P1;HPM_P2
2022/01/28 00:01:44;;;;;;;11.52;3.25;;;;;;;;;;5002027;28;20165;-50
2022/01/28 00:04:16;;;;;;;12.45;2.55;;;;;;;;;;5001491;28;20227;-50
2022/01/28 00:06:42;;;;;;;8.45;2.47;;;;;;;;;;5001979;28;20207;-50
2022/01/28 00:09:08;;;;;;;7.13;3.17;;;;;;;;;;5001574;28;20208;-51
2022/01/28 00:11:34;;;;;;;8.75;2.85;;;;;;;;;;5001279;28;20851;-51
2022/01/28 00:14:25;;;;;;;9.83;3.03;;;;;;;;;;5001334;28;20188;-51
2022/01/28 00:38:50;;;;;;;15.95;3.80;;;;;;;;;;4993138;28;20233;-50
2022/01/28 00:41:16;;;;;;;13.13;2.60;;;;;;;;;;4993336;28;20166;-50
2022/01/28 00:43:42;;;;;;;14.13;3.05;;;;;;;;;;4993119;28;20172;-50
2022/01/28 00:46:09;;;;;;;13.77;3.67;;;;;;;;;;4992827;28;20221;-50
2022/01/28 00:48:35;;;;;;;8.70;2.72;;;;;;;;;;4992035;28;20217;-50
2022/01/28 00:51:01;;;;;;;7.13;2.75;;;;;;;;;;4992040;28;20189;-50
2022/01/28 00:53:27;;;;;;;6.20;2.53;;;;;;;;;;4993099;28;20175;-50
2022/01/28 00:55:54;;;;;;;13.27;2.97;;;;;;;;;;4992953;28;20416;-50
2022/01/28 00:58:20;;;;;;;23.75;3.10;;;;;;;;;;4992973;28;20194;-50
2022/01/28 01:00:46;;;;;;;10.73;2.67;;;;;;;;;;4992706;28;20188;-50
2022/01/28 01:03:12;;;;;;;15.60;3.20;;;;;;;;;;4992850;28;20169;-50
2022/01/28 01:05:38;;;;;;;5.60;2.22;;;;;;;;;;4992824;28;20444;-51
2022/01/28 01:08:05;;;;;;;8.90;2.97;;;;;;;;;;4992923;28;20684;-51
2022/01/28 01:10:31;;;;;;;9.05;2.45;;;;;;;;;;4992506;28;20458;-50
2022/01/28 01:12:57;;;;;;;13.13;2.60;;;;;;;;;;4992704;28;20232;-50
2022/01/28 01:15:32;;;;;;;12.37;3.50;;;;;;;;;;4991568;28;20200;-50
2022/01/28 01:18:09;;;;;;;8.48;2.63;;;;;;;;;;4973298;28;20946;-50
2022/01/28 01:21:01;;;;;;;15.40;3.47;;;;;;;;;;4972895;28;20165;-51
2022/01/28 01:23:31;;;;;;;9.25;2.20;;;;;;;;;;4973426;28;20212;-50
2022/01/28 01:26:09;;;;;;;18.33;2.78;;;;;;;;;;4972987;28;20185;-50
2022/01/28 01:28:37;;;;;;;10.90;2.35;;;;;;;;;;4973246;28;20162;-50
2022/01/28 01:31:05;;;;;;;11.02;2.65;;;;;;;;;;4972761;28;20582;-53
2022/01/28 01:33:36;;;;;;;10.40;2.97;;;;;;;;;;4973247;28;20208;-50
2022/01/28 01:36:03;;;;;;;11.60;3.05;;;;;;;;;;4973056;28;20193;-51
2022/01/28 01:38:33;;;;;;;17.65;2.63;;;;;;;;;;4972947;28;20193;-51
2022/01/28 01:41:01;;;;;;;19.77;3.83;;;;;;;;;;4972661;28;20162;-50
2022/01/28 01:46:20;;;;;;;13.73;2.83;;;;;;;;;;4973977;28;20196;-50
2022/01/28 01:54:16;;;;;;;12.85;2.85;;;;;;;;;;4973037;28;20188;-51
2022/01/28 01:56:42;;;;;;;13.65;3.45;;;;;;;;;;4972579;28;20240;-51
2022/01/28 01:59:09;;;;;;;13.40;3.10;;;;;;;;;;4972267;28;20193;-51
2022/01/28 02:01:35;;;;;;;10.50;3.00;;;;;;;;;;4972387;28;20252;-50
2022/01/28 02:04:01;;;;;;;5.95;2.28;;;;;;;;;;4972439;28;20232;-50
2022/01/28 02:06:27;;;;;;;15.87;3.03;;;;;;;;;;4972407;28;20194;-50
2022/01/28 02:08:53;;;;;;;3.03;1.97;;;;;;;;;;4971990;28;20409;-52
2022/01/28 02:11:19;;;;;;;15.63;3.27;;;;;;;;;;4972459;28;20405;-51
2022/01/28 02:13:50;;;;;;;11.73;2.72;;;;;;;;;;4972239;28;20984;-50
2022/01/28 02:16:16;;;;;;;9.38;2.90;;;;;;;;;;4972137;28;20552;-52
2022/01/28 02:18:42;;;;;;;14.50;2.92;;;;;;;;;;4989139;28;20699;-50
2022/01/28 02:21:11;;;;;;;8.45;2.50;;;;;;;;;;4991656;28;20165;-51
2022/01/28 02:23:37;;;;;;;18.35;2.75;;;;;;;;;;4991690;28;20165;-50
2022/01/28 02:26:04;;;;;;;13.55;3.28;;;;;;;;;;4991667;28;20652;-51
2022/01/28 02:28:35;;;;;;;9.93;2.72;;;;;;;;;;4991747;28;20173;-50
2022/01/28 02:31:05;;;;;;;13.27;2.97;;;;;;;;;;4991538;28;20391;-52
2022/01/28 02:33:31;;;;;;;9.98;2.50;;;;;;;;;;4993369;28;20165;-50
2022/01/28 02:36:03;;;;;;;10.60;2.57;;;;;;;;;;4995882;28;20197;-50
2022/01/28 02:38:29;;;;;;;9.25;2.25;;;;;;;;;;4994872;28;20954;-50
2022/01/28 02:40:58;;;;;;;11.77;2.40;;;;;;;;;;4995498;28;20200;-50
2022/01/28 02:43:40;;;;;;;21.67;4.07;;;;;;;;;;4995499;28;20454;-50
2022/01/28 02:46:10;;;;;;;8.05;3.17;;;;;;;;;;4995548;28;20188;-52
2022/01/28 02:48:39;;;;;;;15.05;3.85;;;;;;;;;;4995484;28;20169;-50
2022/01/28 02:51:12;;;;;;;11.65;3.22;;;;;;;;;;4995241;28;20168;-50
2022/01/28 02:56:13;;;;;;;12.15;3.40;;;;;;;;;;4995237;28;20200;-50
2022/01/28 02:58:39;;;;;;;8.80;2.38;;;;;;;;;;4995386;28;20565;-50
2022/01/28 03:01:05;;;;;;;12.93;2.50;;;;;;;;;;4994806;28;20169;-51
2022/01/28 03:03:31;;;;;;;12.15;3.35;;;;;;;;;;4994970;28;20248;-51
2022/01/28 03:05:57;;;;;;;13.73;2.43;;;;;;;;;;4994629;28;20664;-51
2022/01/28 03:08:26;;;;;;;9.23;2.23;;;;;;;;;;4994196;28;20435;-50
2022/01/28 03:11:25;;;;;;;10.57;2.55;;;;;;;;;;4994136;28;20432;-50
2022/01/28 03:16:19;;;;;;;12.10;3.60;;;;;;;;;;4994958;28;20235;-51
2022/01/28 03:19:01;;;;;;;12.45;2.88;;;;;;;;;;4994903;28;20786;-50
2022/01/28 03:24:01;;;;;;;10.85;2.90;;;;;;;;;;4994247;28;20902;-50
2022/01/28 03:26:28;;;;;;;9.77;2.17;;;;;;;;;;4994740;28;20668;-50
2022/01/28 03:28:54;;;;;;;11.25;3.42;;;;;;;;;;4994531;28;20223;-51
2022/01/28 03:31:21;;;;;;;18.55;3.35;;;;;;;;;;4994781;28;20251;-51
2022/01/28 03:33:47;;;;;;;9.32;2.50;;;;;;;;;;4994662;28;20169;-51
2022/01/28 03:36:14;;;;;;;6.20;2.50;;;;;;;;;;4994574;28;20251;-51
2022/01/28 03:38:41;;;;;;;12.13;3.53;;;;;;;;;;4994621;28;20263;-50
2022/01/28 03:41:12;;;;;;;12.02;2.83;;;;;;;;;;4994690;28;20161;-50
2022/01/28 03:43:38;;;;;;;25.13;2.63;;;;;;;;;;4993624;28;20161;-50
2022/01/28 03:46:04;;;;;;;7.60;2.50;;;;;;;;;;4994555;28;20288;-50
2022/01/28 03:48:30;;;;;;;15.13;2.90;;;;;;;;;;4994572;28;20276;-50
2022/01/28 03:50:56;;;;;;;9.20;3.00;;;;;;;;;;4994118;28;20474;-51
2022/01/28 03:53:22;;;;;;;14.47;3.70;;;;;;;;;;4994292;28;20411;-52
2022/01/28 03:55:51;;;;;;;6.93;2.10;;;;;;;;;;4994190;28;20436;-51
2022/01/28 03:58:17;;;;;;;12.23;2.70;;;;;;;;;;4994150;28;20470;-51
2022/01/28 04:00:43;;;;;;;10.33;2.43;;;;;;;;;;4993984;28;20633;-50
2022/01/28 04:13:47;;;;;;;10.07;3.05;;;;;;;;;;4993850;28;20294;-51
2022/01/28 04:18:45;;;;;;;8.65;2.70;;;;;;;;;;4993936;28;20686;-50
2022/01/28 04:21:11;;;;;;;10.53;2.70;;;;;;;;;;4993631;28;20169;-51
2022/01/28 04:23:37;;;;;;;10.03;2.30;;;;;;;;;;4993688;28;20880;-51
2022/01/28 04:26:03;;;;;;;23.43;2.80;;;;;;;;;;4993559;28;20439;-50
2022/01/28 04:28:29;;;;;;;16.63;2.97;;;;;;;;;;4993639;28;20859;-50
2022/01/28 04:30:55;;;;;;;12.43;3.10;;;;;;;;;;4993428;28;20467;-50
2022/01/28 04:33:21;;;;;;;8.07;2.80;;;;;;;;;;4993544;28;20683;-50
2022/01/28 04:35:51;;;;;;;12.82;2.80;;;;;;;;;;4993534;28;20204;-51
2022/01/28 04:41:19;;;;;;;9.02;2.47;;;;;;;;;;4991595;28;20669;-51
2022/01/28 04:44:01;;;;;;;10.73;2.83;;;;;;;;;;4992991;28;20180;-52
2022/01/28 04:49:07;;;;;;;13.45;3.20;;;;;;;;;;4993799;28;20208;-52
2022/01/28 04:57:09;;;;;;;11.07;2.90;;;;;;;;;;4982355;28;20219;-52
2022/01/28 05:04:58;;;;;;;25.33;3.25;;;;;;;;;;4993254;28;20612;-52
2022/01/28 05:10:33;;;;;;;14.20;2.70;;;;;;;;;;4992044;28;20219;-52
2022/01/28 05:15:38;;;;;;;8.10;2.58;;;;;;;;;;4992638;28;20222;-52
2022/01/28 05:26:27;;;;;;;10.10;2.55;;;;;;;;;;4992602;28;20336;-52
2022/01/28 05:28:53;;;;;;;5.55;2.50;;;;;;;;;;4992326;28;20176;-52
2022/01/28 05:31:20;;;;;;;10.18;3.25;;;;;;;;;;4992498;28;20176;-52
2022/01/28 05:33:47;;;;;;;12.07;3.63;;;;;;;;;;4992404;28;20177;-52
2022/01/28 05:36:13;;;;;;;17.02;3.42;;;;;;;;;;4992349;28;20832;-52
2022/01/28 05:38:39;;;;;;;7.80;3.13;;;;;;;;;;4991615;28;20203;-52
2022/01/28 05:41:05;;;;;;;10.15;2.88;;;;;;;;;;4991910;28;20420;-52
2022/01/28 05:43:31;;;;;;;8.50;3.13;;;;;;;;;;4992208;28;20204;-52
2022/01/28 05:45:57;;;;;;;9.60;2.50;;;;;;;;;;4992235;28;20420;-52
2022/01/28 05:48:23;;;;;;;16.37;2.70;;;;;;;;;;4992304;28;20404;-52
2022/01/28 05:50:50;;;;;;;7.70;2.67;;;;;;;;;;4992040;28;20439;-52
2022/01/28 05:53:16;;;;;;;13.43;2.60;;;;;;;;;;4992246;28;20443;-52
2022/01/28 05:55:42;;;;;;;10.57;2.80;;;;;;;;;;4992299;28;20231;-51
2022/01/28 05:58:08;;;;;;;11.13;3.00;;;;;;;;;;4992254;28;20400;-51
2022/01/28 06:00:34;;;;;;;14.10;3.08;;;;;;;;;;4991981;28;20495;-52
2022/01/28 06:03:00;;;;;;;13.67;4.20;;;;;;;;;;4992051;28;20260;-51
2022/01/28 06:05:32;;;;;;;13.13;3.60;;;;;;;;;;4991995;28;20431;-51
2022/01/28 06:07:58;;;;;;;13.23;3.00;;;;;;;;;;4991124;28;20206;-52
2022/01/28 06:10:24;;;;;;;15.48;2.92;;;;;;;;;;4990986;28;20188;-52
2022/01/28 06:12:50;;;;;;;17.65;3.13;;;;;;;;;;4991707;28;20184;-52
2022/01/28 06:15:16;;;;;;;12.77;3.13;;;;;;;;;;4991639;28;20185;-52
2022/01/28 06:17:42;;;;;;;17.98;2.97;;;;;;;;;;4992237;28;20168;-50
2022/01/28 06:20:09;;;;;;;16.75;3.78;;;;;;;;;;4991471;28;20209;-50
2022/01/28 06:22:39;;;;;;;11.43;3.03;;;;;;;;;;4991702;28;20180;-51
2022/01/28 06:25:06;;;;;;;8.55;2.88;;;;;;;;;;4991661;28;20215;-51
2022/01/28 06:27:32;;;;;;;14.70;3.08;;;;;;;;;;4991756;28;20184;-50
2022/01/28 06:29:58;;;;;;;14.93;2.95;;;;;;;;;;4991419;28;20169;-50
2022/01/28 06:32:24;;;;;;;24.77;4.00;;;;;;;;;;4991612;28;20648;-51
2022/01/28 06:34:50;;;;;;;9.37;3.00;;;;;;;;;;4991629;28;20770;-50
2022/01/28 06:37:15;;;;;;;9.33;3.03;;;;;;;;;;4991507;28;20432;-50
2022/01/28 06:39:41;;;;;;;9.00;2.70;;;;;;;;;;4989311;28;20471;-51
2022/01/28 06:42:08;;;;;;;5.53;3.00;;;;;;;;;;4991563;28;20490;-51
2022/01/28 06:44:34;;;;;;;17.15;3.95;;;;;;;;;;4991437;28;20919;-51
2022/01/28 06:47:00;;;;;;;12.57;3.30;;;;;;;;;;4991475;28;20188;-50
2022/01/28 06:49:25;;;;;;;12.23;3.20;;;;;;;;;;4991385;28;20415;-51
2022/01/28 06:51:51;;;;;;;11.50;3.50;;;;;;;;;;4991474;28;20896;-50
2022/01/28 06:54:17;;;;;;;10.17;3.30;;;;;;;;;;4991624;28;20911;-51
2022/01/28 06:56:44;;;;;;;7.73;3.13;;;;;;;;;;4991908;28;20787;-50
2022/01/28 06:59:11;;;;;;;14.63;3.20;;;;;;;;;;4991173;28;20444;-50
2022/01/28 07:01:37;;;;;;;11.95;3.28;;;;;;;;;;4991567;28;20521;-50
2022/01/28 07:04:03;;;;;;;11.20;3.72;;;;;;;;;;4991576;28;20227;-50
2022/01/28 07:06:29;;;;;;;14.25;3.80;;;;;;;;;;4991612;28;20185;-50
2022/01/28 07:08:55;;;;;;;3.75;2.65;;;;;;;;;;4990259;28;20173;-50
2022/01/28 07:11:23;;;;;;;17.27;4.03;;;;;;;;;;4991541;28;20173;-50
2022/01/28 07:13:48;;;;;;;12.55;3.08;;;;;;;;;;4991281;28;20173;-51
2022/01/28 07:16:14;;;;;;;13.73;4.37;;;;;;;;;;4991074;28;20213;-51
2022/01/28 07:18:40;;;;;;;8.23;3.23;;;;;;;;;;4991208;28;20456;-51
2022/01/28 07:21:06;;;;;;;9.73;3.90;;;;;;;;;;4994707;28;20454;-50
2022/01/28 07:23:32;;;;;;;9.00;3.90;;;;;;;;;;4994786;28;20486;-50
2022/01/28 07:25:58;;;;;;;11.90;4.10;;;;;;;;;;4994727;28;20424;-50
2022/01/28 07:28:25;;;;;;;14.47;3.70;;;;;;;;;;4994588;28;20418;-50
2022/01/28 07:30:53;;;;;;;9.57;3.60;;;;;;;;;;4994579;28;20408;-51
2022/01/28 07:33:19;;;;;;;22.10;3.72;;;;;;;;;;4994627;28;20173;-50
2022/01/28 07:35:46;;;;;;;13.63;4.00;;;;;;;;;;4994533;28;20193;-50
2022/01/28 07:38:14;;;;;;;13.88;3.88;;;;;;;;;;4993557;28;20458;-52
2022/01/28 07:40:41;;;;;;;12.60;2.97;;;;;;;;;;4993593;28;20268;-50
2022/01/28 07:43:07;;;;;;;11.25;3.70;;;;;;;;;;4994186;28;20207;-51
2022/01/28 07:45:33;;;;;;;14.93;2.93;;;;;;;;;;4996022;28;20565;-51
2022/01/28 07:47:59;;;;;;;11.87;3.77;;;;;;;;;;4994045;28;20434;-54
2022/01/28 07:50:25;;;;;;;7.93;3.73;;;;;;;;;;4994163;28;20400;-50
2022/01/28 07:52:51;;;;;;;11.83;3.23;;;;;;;;;;4995559;28;20460;-50
2022/01/28 07:55:16;;;;;;;16.70;3.40;;;;;;;;;;4993914;28;20451;-50
2022/01/28 07:57:43;;;;;;;8.97;3.37;;;;;;;;;;4993738;28;20396;-50
2022/01/28 08:00:10;;;;;;;11.02;3.30;;;;;;;;;;4993643;28;20546;-51
2022/01/28 08:02:36;;;;;;;10.18;3.17;;;;;;;;;;4993738;28;20171;-50
2022/01/28 08:05:02;;;;;;;14.18;3.60;;;;;;;;;;4993889;28;20173;-50
2022/01/28 08:07:28;;;;;;;12.48;3.75;;;;;;;;;;4993348;28;20165;-50
2022/01/28 08:09:54;;;;;;;8.30;3.42;;;;;;;;;;4994650;28;20204;-50
2022/01/28 08:12:21;;;;;;;17.53;3.80;;;;;;;;;;4993348;28;20267;-50
2022/01/28 08:14:47;;;;;;;9.52;4.00;;;;;;;;;;4993840;28;20404;-51
2022/01/28 08:17:13;;;;;;;14.93;5.67;;;;;;;;;;4993251;28;20213;-50
2022/01/28 08:19:39;;;;;;;20.08;3.47;;;;;;;;;;4993544;28;20566;-50
2022/01/28 08:22:06;;;;;;;10.85;3.28;;;;;;;;;;4993678;28;20641;-51
2022/01/28 08:24:32;;;;;;;10.85;3.08;;;;;;;;;;4993708;28;20175;-50
2022/01/28 08:26:58;;;;;;;23.13;3.70;;;;;;;;;;4992155;28;20189;-50
2022/01/28 08:29:24;;;;;;;10.40;3.43;;;;;;;;;;4993463;28;20521;-51
2022/01/28 08:31:50;;;;;;;10.15;3.45;;;;;;;;;;4992559;28;20967;-50
2022/01/28 08:34:16;;;;;;;10.07;3.67;;;;;;;;;;4993457;28;20251;-50
2022/01/28 08:36:42;;;;;;;15.38;4.22;;;;;;;;;;4993444;28;20280;-50
2022/01/28 08:39:10;;;;;;;14.85;3.65;;;;;;;;;;4992246;28;20308;-50
2022/01/28 08:41:39;;;;;;;15.15;3.85;;;;;;;;;;4993145;28;20681;-50
2022/01/28 08:44:05;;;;;;;5.20;2.90;;;;;;;;;;4993103;28;20164;-50
2022/01/28 08:46:31;;;;;;;7.50;2.40;;;;;;;;;;4993122;28;20605;-51
2022/01/28 08:48:57;;;;;;;12.13;3.10;;;;;;;;;;4993062;28;20177;-52
2022/01/28 08:51:23;;;;;;;4.50;2.50;;;;;;;;;;4993191;28;20404;-50
2022/01/28 08:53:49;;;;;;;7.22;3.33;;;;;;;;;;4993055;28;20404;-50
2022/01/28 08:56:15;;;;;;;15.00;3.90;;;;;;;;;;4992896;28;20204;-50
2022/01/28 08:58:41;;;;;;;17.60;3.92;;;;;;;;;;4992996;28;20645;-52
2022/01/28 09:01:09;;;;;;;7.50;2.97;;;;;;;;;;4992771;28;20825;-50
2022/01/28 09:03:35;;;;;;;15.77;4.13;;;;;;;;;;4992579;28;20412;-50
2022/01/28 09:06:01;;;;;;;13.30;3.60;;;;;;;;;;4992780;28;20567;-51
2022/01/28 09:08:27;;;;;;;5.80;2.70;;;;;;;;;;4989455;28;20432;-51
2022/01/28 09:10:58;;;;;;;11.98;3.13;;;;;;;;;;4990681;28;20450;-51
2022/01/28 09:13:28;;;;;;;5.28;2.80;;;;;;;;;;4992257;28;20169;-50
2022/01/28 09:15:55;;;;;;;6.90;2.83;;;;;;;;;;4992363;28;20205;-50
2022/01/28 09:18:22;;;;;;;15.30;3.10;;;;;;;;;;4992804;28;20535;-52
2022/01/28 09:20:49;;;;;;;10.33;3.10;;;;;;;;;;4992303;28;20434;-50
2022/01/28 09:23:14;;;;;;;17.67;3.60;;;;;;;;;;4992674;28;20406;-50
2022/01/28 09:25:41;;;;;;;14.00;2.50;;;;;;;;;;4992006;28;20431;-51
2022/01/28 09:28:07;;;;;;;19.40;3.20;;;;;;;;;;4992611;28;20892;-51
2022/01/28 09:30:33;;;;;;;9.17;3.20;;;;;;;;;;4992325;28;20395;-51
2022/01/28 09:32:59;;;;;;;15.67;3.70;;;;;;;;;;4992426;28;20762;-51
2022/01/28 09:35:26;;;;;;;11.00;2.60;;;;;;;;;;4992333;28;20787;-51
2022/01/28 09:37:52;;;;;;;11.33;2.73;;;;;;;;;;4991570;28;20407;-51
2022/01/28 09:40:18;;;;;;;7.13;2.60;;;;;;;;;;4991971;28;20465;-51
2022/01/28 09:42:46;;;;;;;13.87;2.90;;;;;;;;;;4990848;28;20435;-51
2022/01/28 09:45:16;;;;;;;18.03;3.27;;;;;;;;;;4992140;28;20405;-51
2022/01/28 09:47:42;;;;;;;12.13;4.00;;;;;;;;;;4992289;28;21023;-51
2022/01/28 09:50:08;;;;;;;25.00;3.87;;;;;;;;;;4991907;28;20459;-51
2022/01/28 09:52:35;;;;;;;8.70;3.07;;;;;;;;;;4992027;28;20495;-51
2022/01/28 09:55:01;;;;;;;11.40;3.73;;;;;;;;;;4992014;28;20826;-52
2022/01/28 09:57:28;;;;;;;17.60;3.30;;;;;;;;;;4992240;28;20474;-51
2022/01/28 09:59:54;;;;;;;13.10;3.47;;;;;;;;;;4991885;28;20466;-52
2022/01/28 10:02:20;;;;;;;13.70;3.27;;;;;;;;;;4992038;28;20403;-51
2022/01/28 10:04:46;;;;;;;12.93;3.10;;;;;;;;;;4991978;28;20459;-51
2022/01/28 10:07:12;;;;;;;6.83;2.40;;;;;;;;;;4991778;28;20505;-52
2022/01/28 10:10:01;;;;;;;20.53;2.83;;;;;;;;;;4990706;28;20436;-53
2022/01/28 10:12:40;;;;;;;13.20;2.93;;;;;;;;;;4991878;28;20822;-51
2022/01/28 10:15:17;;;;;;;20.43;3.17;;;;;;;;;;4991704;28;20885;-51
2022/01/28 10:17:56;;;;;;;17.60;4.13;;;;;;;;;;4991723;28;20506;-51
2022/01/28 10:20:23;;;;;;;8.70;2.67;;;;;;;;;;4991482;28;20466;-51
2022/01/28 10:22:50;;;;;;;13.13;3.10;;;;;;;;;;4990484;28;20786;-51
2022/01/28 10:25:23;;;;;;;14.80;3.23;;;;;;;;;;4991671;28;20422;-51
2022/01/28 10:27:56;;;;;;;10.87;3.00;;;;;;;;;;4991766;28;20463;-52
2022/01/28 10:30:22;;;;;;;9.33;3.10;;;;;;;;;;4991348;28;20409;-51
2022/01/28 10:33:08;;;;;;;9.83;3.37;;;;;;;;;;4990492;28;20907;-52
2022/01/28 10:35:34;;;;;;;15.63;2.97;;;;;;;;;;4991591;28;20439;-53
2022/01/28 10:38:02;;;;;;;16.60;3.00;;;;;;;;;;4991726;28;20943;-51
2022/01/28 10:40:28;;;;;;;13.80;3.43;;;;;;;;;;4990567;28;20837;-51
2022/01/28 10:42:54;;;;;;;12.57;3.60;;;;;;;;;;4991697;28;20896;-52
2022/01/28 10:45:24;;;;;;;9.90;3.43;;;;;;;;;;4991680;28;20402;-51
2022/01/28 10:47:53;;;;;;;10.37;3.50;;;;;;;;;;4990844;28;20950;-51
2022/01/28 10:50:22;;;;;;;16.30;3.40;;;;;;;;;;4990425;28;20432;-51
2022/01/28 10:52:57;;;;;;;12.37;3.37;;;;;;;;;;4991491;28;20411;-51
2022/01/28 10:55:23;;;;;;;14.17;3.00;;;;;;;;;;4994000;28;20491;-51
2022/01/28 10:58:01;;;;;;;19.80;3.70;;;;;;;;;;4995310;28;20476;-51
2022/01/28 11:00:30;;;;;;;10.47;2.70;;;;;;;;;;4994731;28;20981;-51
2022/01/28 11:02:58;;;;;;;13.97;3.30;;;;;;;;;;4995474;28;20763;-51
2022/01/28 11:05:24;;;;;;;15.70;3.90;;;;;;;;;;4994166;28;20403;-53
2022/01/28 11:07:50;;;;;;;9.60;3.27;;;;;;;;;;4980556;28;20900;-51
2022/01/28 11:10:16;;;;;;;23.43;3.10;;;;;;;;;;4994412;28;20409;-51
2022/01/28 11:12:44;;;;;;;16.40;3.60;;;;;;;;;;4996265;28;20496;-51
2022/01/28 11:15:10;;;;;;;12.07;3.10;;;;;;;;;;4994666;28;20408;-52
2022/01/28 11:17:37;;;;;;;13.73;3.00;;;;;;;;;;4994559;28;20975;-51
2022/01/28 11:20:05;;;;;;;14.27;3.43;;;;;;;;;;4994676;28;20566;-51
2022/01/28 11:22:34;;;;;;;8.03;2.90;;;;;;;;;;4994769;28;20840;-51
2022/01/28 11:25:06;;;;;;;12.73;3.00;;;;;;;;;;4994466;28;20492;-51
2022/01/28 11:27:34;;;;;;;15.43;3.67;;;;;;;;;;4993630;28;20432;-51
2022/01/28 11:30:18;;;;;;;12.13;3.40;;;;;;;;;;4994563;28;20812;-51
2022/01/28 11:33:00;;;;;;;10.93;2.80;;;;;;;;;;4994669;28;20432;-51
2022/01/28 11:35:26;;;;;;;13.10;2.70;;;;;;;;;;4994615;28;20443;-52
2022/01/28 11:37:56;;;;;;;15.73;2.90;;;;;;;;;;4994590;28;20408;-51
2022/01/28 11:40:23;;;;;;;12.57;2.97;;;;;;;;;;4994443;28;20459;-52
2022/01/28 11:42:49;;;;;;;8.73;3.00;;;;;;;;;;4994555;28;20408;-51
2022/01/28 11:45:15;;;;;;;15.23;5.10;;;;;;;;;;4994326;28;20979;-52
2022/01/28 11:47:52;;;;;;;10.27;2.43;;;;;;;;;;4994200;28;20478;-52
2022/01/28 11:50:19;;;;;;;9.30;2.67;;;;;;;;;;4992120;28;20432;-51
2022/01/28 11:52:52;;;;;;;11.90;2.77;;;;;;;;;;4993995;28;20412;-51
2022/01/28 11:55:20;;;;;;;8.40;2.50;;;;;;;;;;4994081;28;20994;-51
2022/01/28 11:57:55;;;;;;;11.00;3.03;;;;;;;;;;4992754;28;20412;-51
2022/01/28 12:00:24;;;;;;;6.27;2.60;;;;;;;;;;4993875;28;21135;-51
2022/01/28 12:02:54;;;;;;;9.50;2.90;;;;;;;;;;4994165;28;20637;-51
2022/01/28 12:05:46;;;;;;;13.50;4.07;;;;;;;;;;4993874;28;20424;-51
2022/01/28 12:08:13;;;;;;;6.60;2.47;;;;;;;;;;4994012;28;20922;-51
2022/01/28 12:10:43;;;;;;;9.90;2.60;;;;;;;;;;4993747;28;20408;-51
2022/01/28 12:13:13;;;;;;;13.03;3.50;;;;;;;;;;4993328;28;20412;-51
2022/01/28 12:15:59;;;;;;;21.63;3.87;;;;;;;;;;4992814;28;20440;-52
2022/01/28 12:18:25;;;;;;;11.57;2.53;;;;;;;;;;4978335;28;20517;-52
2022/01/28 12:20:52;;;;;;;17.70;3.47;;;;;;;;;;4978768;28;20413;-53
2022/01/28 12:23:21;;;;;;;14.60;2.90;;;;;;;;;;4993310;28;20913;-52
2022/01/28 12:25:48;;;;;;;12.97;2.77;;;;;;;;;;4997369;28;20431;-52
2022/01/28 12:28:26;;;;;;;8.93;2.90;;;;;;;;;;4997259;28;20446;-52
2022/01/28 12:31:03;;;;;;;10.70;3.07;;;;;;;;;;4997118;28;20404;-52
2022/01/28 12:33:30;;;;;;;14.17;3.23;;;;;;;;;;4996499;28;20420;-52
2022/01/28 12:35:58;;;;;;;11.70;2.60;;;;;;;;;;4996896;28;20432;-52
2022/01/28 12:38:25;;;;;;;18.77;3.10;;;;;;;;;;4995967;28;20402;-52
2022/01/28 12:40:53;;;;;;;7.67;3.00;;;;;;;;;;4996152;28;20770;-52
2022/01/28 12:43:20;;;;;;;12.10;3.60;;;;;;;;;;4996351;28;20414;-52
2022/01/28 12:46:07;;;;;;;15.47;3.50;;;;;;;;;;4997269;28;20431;-52
2022/01/28 12:48:33;;;;;;;8.83;2.63;;;;;;;;;;4997477;28;20450;-52
2022/01/28 12:51:01;;;;;;;13.17;3.20;;;;;;;;;;4997628;28;20403;-52
2022/01/28 12:53:32;;;;;;;8.07;2.67;;;;;;;;;;4996956;28;20420;-52
2022/01/28 12:56:02;;;;;;;10.90;3.10;;;;;;;;;;4999860;28;20946;-52
2022/01/28 12:58:50;;;;;;;9.50;3.07;;;;;;;;;;5002284;28;20485;-52
2022/01/28 13:01:20;;;;;;;13.03;3.97;;;;;;;;;;5007044;28;20421;-52
2022/01/28 13:03:51;;;;;;;14.20;3.50;;;;;;;;;;5001737;28;20505;-53
2022/01/28 13:08:59;;;;;;;11.77;3.57;;;;;;;;;;4999213;28;20990;-53
2022/01/28 13:11:27;;;;;;;7.73;3.13;;;;;;;;;;5000222;28;20411;-53
2022/01/28 13:13:54;;;;;;;14.70;3.03;;;;;;;;;;5000679;28;20419;-53
2022/01/28 13:16:33;;;;;;;13.80;3.33;;;;;;;;;;5001870;28;20537;-52
2022/01/28 13:19:00;;;;;;;12.10;3.33;;;;;;;;;;5000104;28;20453;-52
2022/01/28 13:21:27;;;;;;;8.70;3.13;;;;;;;;;;4999992;28;20487;-52
2022/01/28 13:24:03;;;;;;;8.60;2.90;;;;;;;;;;5000790;28;20407;-52
2022/01/28 13:26:29;;;;;;;15.60;3.27;;;;;;;;;;4999471;28;20427;-52
2022/01/28 13:29:09;;;;;;;10.40;2.97;;;;;;;;;;5000690;28;20406;-53
2022/01/28 13:31:35;;;;;;;14.83;2.90;;;;;;;;;;4999975;28;20431;-52
2022/01/28 13:34:04;;;;;;;10.50;2.67;;;;;;;;;;5000745;28;20413;-52
2022/01/28 13:36:43;;;;;;;13.87;3.27;;;;;;;;;;4997333;28;20437;-51
2022/01/28 13:39:13;;;;;;;11.00;2.60;;;;;;;;;;4991239;28;20470;-51
2022/01/28 13:41:40;;;;;;;10.93;3.53;;;;;;;;;;4991987;28;20417;-51
2022/01/28 13:44:19;;;;;;;16.03;3.50;;;;;;;;;;4992274;28;20432;-52
2022/01/28 13:46:54;;;;;;;7.23;3.37;;;;;;;;;;4992251;28;20935;-52
2022/01/28 13:49:23;;;;;;;12.40;2.90;;;;;;;;;;4991975;28;20409;-51
2022/01/28 13:51:50;;;;;;;12.17;3.33;;;;;;;;;;4991978;28;20477;-51
2022/01/28 13:54:18;;;;;;;9.23;3.70;;;;;;;;;;4991816;28;20415;-51
2022/01/28 13:56:46;;;;;;;6.80;4.53;;;;;;;;;;4992235;28;20845;-51
2022/01/28 13:59:13;;;;;;;23.80;3.53;;;;;;;;;;4991400;28;20461;-51
2022/01/28 14:01:43;;;;;;;8.57;3.30;;;;;;;;;;4991859;28;20413;-52
2022/01/28 14:04:18;;;;;;;14.83;3.47;;;;;;;;;;4991808;28;20397;-51
2022/01/28 14:06:44;;;;;;;14.20;3.70;;;;;;;;;;4991818;28;20427;-51
2022/01/28 14:09:12;;;;;;;7.90;3.30;;;;;;;;;;4990644;28;20404;-51
2022/01/28 14:11:41;;;;;;;8.90;3.30;;;;;;;;;;4991805;28;20408;-51
2022/01/28 14:14:25;;;;;;;17.80;3.10;;;;;;;;;;4991565;28;21032;-51
2022/01/28 14:17:10;;;;;;;7.43;2.80;;;;;;;;;;4992750;28;20963;-52
2022/01/28 14:19:38;;;;;;;11.10;3.47;;;;;;;;;;4991089;28;20521;-51
2022/01/28 14:22:06;;;;;;;8.53;2.70;;;;;;;;;;4991585;28;20415;-52
2022/01/28 14:24:32;;;;;;;12.80;3.10;;;;;;;;;;4990918;28;20413;-52
2022/01/28 14:32:26;;;;;;;10.97;2.90;;;;;;;;;;4989885;28;20444;-53
2022/01/28 14:34:53;;;;;;;3.50;2.80;;;;;;;;;;4990668;28;20966;-52
2022/01/28 14:37:21;;;;;;;14.97;3.97;;;;;;;;;;4991308;28;20430;-51
2022/01/28 14:39:47;;;;;;;6.23;3.87;;;;;;;;;;4990323;28;20469;-53
2022/01/28 14:42:15;;;;;;;12.13;4.50;;;;;;;;;;4991144;28;20404;-53
2022/01/28 14:44:42;;;;;;;9.83;4.27;;;;;;;;;;4996946;28;20428;-53
2022/01/28 14:47:09;;;;;;;7.50;3.93;;;;;;;;;;5002654;28;20562;-51
2022/01/28 14:49:35;;;;;;;10.90;5.10;;;;;;;;;;4994767;28;20408;-53
2022/01/28 14:52:02;;;;;;;12.23;4.27;;;;;;;;;;4993535;28;20425;-53
2022/01/28 14:54:29;;;;;;;12.33;5.10;;;;;;;;;;4994450;28;20404;-53
2022/01/28 14:56:56;;;;;;;8.27;4.77;;;;;;;;;;4992975;28;20430;-52
2022/01/28 14:59:22;;;;;;;8.60;4.40;;;;;;;;;;5002476;28;20458;-52
2022/01/28 15:01:49;;;;;;;11.43;4.57;;;;;;;;;;5010268;28;20931;-52
2022/01/28 15:04:17;;;;;;;11.13;4.40;;;;;;;;;;5008108;28;20491;-52
2022/01/28 15:06:45;;;;;;;14.80;5.13;;;;;;;;;;5013721;28;20438;-52
2022/01/28 15:09:12;;;;;;;9.63;3.60;;;;;;;;;;5000176;28;20440;-52
2022/01/28 15:11:47;;;;;;;8.53;3.97;;;;;;;;;;5005312;28;20420;-52
2022/01/28 15:14:14;;;;;;;22.10;5.37;;;;;;;;;;5001216;28;20411;-51
2022/01/28 15:16:40;;;;;;;14.30;4.47;;;;;;;;;;4996779;28;20452;-52
2022/01/28 15:19:07;;;;;;;8.70;4.80;;;;;;;;;;5008076;28;21048;-51
2022/01/28 15:21:33;;;;;;;10.47;4.07;;;;;;;;;;4998214;28;20511;-52
2022/01/28 15:23:59;;;;;;;10.00;3.90;;;;;;;;;;4990973;28;20886;-51
2022/01/28 15:26:25;;;;;;;12.50;4.50;;;;;;;;;;4990987;28;20484;-51
2022/01/28 15:29:07;;;;;;;12.60;5.10;;;;;;;;;;4991060;28;20402;-51
2022/01/28 15:37:09;;;;;;;13.63;4.83;;;;;;;;;;4991162;28;20476;-51
2022/01/28 15:39:35;;;;;;;8.17;4.30;;;;;;;;;;4989734;28;20473;-51
2022/01/28 15:42:05;;;;;;;19.30;4.50;;;;;;;;;;4994107;28;20430;-51
2022/01/28 15:44:31;;;;;;;7.60;4.80;;;;;;;;;;4994299;28;20550;-51
2022/01/28 15:46:57;;;;;;;16.03;5.00;;;;;;;;;;5004725;28;20441;-51
2022/01/28 15:49:23;;;;;;;19.43;4.47;;;;;;;;;;5012540;28;20761;-51
2022/01/28 15:51:50;;;;;;;9.10;4.47;;;;;;;;;;5013770;28;20497;-51
2022/01/28 15:54:17;;;;;;;14.47;5.07;;;;;;;;;;5002849;28;20576;-51
2022/01/28 15:56:43;;;;;;;9.57;3.10;;;;;;;;;;4987069;28;20454;-51
2022/01/28 15:59:09;;;;;;;8.80;3.70;;;;;;;;;;4993808;28;20472;-51
2022/01/28 16:01:35;;;;;;;5.20;2.70;;;;;;;;;;4994126;28;20399;-54
2022/01/28 16:04:01;;;;;;;5.00;2.73;;;;;;;;;;4994030;28;20849;-51
2022/01/28 16:06:27;;;;;;;7.97;2.90;;;;;;;;;;4993965;28;21001;-51
2022/01/28 16:08:54;;;;;;;16.70;5.60;;;;;;;;;;4993040;28;20477;-51
2022/01/28 16:11:28;;;;;;;12.73;3.13;;;;;;;;;;4994013;28;20409;-52
2022/01/28 16:14:02;;;;;;;5.40;2.40;;;;;;;;;;4993860;28;20436;-51
2022/01/28 16:19:13;;;;;;;10.47;2.50;;;;;;;;;;4993755;28;20663;-51